Time;durP1;ratioP1;P1;durP2;ratioP2;P2;SDS_P1;SDS_P2;PMS_P1;PMS_P2;Temp;Humidity;BMP_temperature;BMP_pressure;BME280_temperature;BME280_humidity;BME280_pressure;Samples;Min_cycle;Max_cycle;Signal;HPM_P1;HPM_P2
2023/01/29 00:01:45;;;;;;;7.83;4.83;;;2.10;99.90;;;;;;5071457;28;20398;-72
2023/01/29 00:04:10;;;;;;;8.03;4.70;;;2.10;99.90;;;;;;5071380;28;20032;-72
2023/01/29 00:06:36;;;;;;;6.63;4.10;;;2.10;99.90;;;;;;5070271;28;20445;-72
2023/01/29 00:09:01;;;;;;;7.53;4.10;;;2.00;99.90;;;;;;5072374;28;20098;-72
2023/01/29 00:11:27;;;;;;;8.30;4.33;;;2.00;99.90;;;;;;5089109;28;20028;-72
2023/01/29 00:13:53;;;;;;;8.07;4.53;;;2.00;99.90;;;;;;5089493;28;20037;-72
2023/01/29 00:16:19;;;;;;;8.57;4.13;;;2.00;99.90;;;;;;5090566;28;20458;-72
2023/01/29 00:18:45;;;;;;;6.57;4.13;;;2.00;99.90;;;;;;5098635;28;20475;-72
2023/01/29 00:21:19;;;;;;;6.23;4.10;;;2.00;99.90;;;;;;5094710;28;20110;-71
2023/01/29 00:23:45;;;;;;;6.90;4.20;;;2.00;99.90;;;;;;5094621;28;20050;-71
2023/01/29 00:26:11;;;;;;;6.77;3.90;;;1.90;99.90;;;;;;5112533;28;20027;-72
2023/01/29 00:28:37;;;;;;;7.33;4.43;;;2.00;99.90;;;;;;5112037;28;20027;-71
2023/01/29 00:31:11;;;;;;;5.60;3.90;;;1.90;99.90;;;;;;5112283;28;20077;-71
2023/01/29 00:33:36;;;;;;;9.13;4.50;;;1.90;99.90;;;;;;5112054;28;20500;-71
2023/01/29 00:36:07;;;;;;;7.50;4.63;;;1.90;99.90;;;;;;5094464;28;20180;-71
2023/01/29 00:38:33;;;;;;;8.07;4.20;;;1.90;99.90;;;;;;5111891;28;20243;-71
2023/01/29 00:46:35;;;;;;;8.07;4.13;;;1.90;99.90;;;;;;5111754;28;20487;-72
2023/01/29 00:49:01;;;;;;;6.90;3.80;;;1.90;99.90;;;;;;5112775;28;20024;-72
2023/01/29 00:51:27;;;;;;;6.57;3.87;;;1.90;99.90;;;;;;5093413;28;20127;-72
2023/01/29 00:53:57;;;;;;;6.87;3.97;;;1.90;99.90;;;;;;5094406;28;20028;-71
2023/01/29 00:56:26;;;;;;;6.67;3.90;;;1.90;99.90;;;;;;5111891;28;20026;-71
2023/01/29 00:58:52;;;;;;;5.93;3.30;;;1.90;99.90;;;;;;5094389;28;20478;-72
2023/01/29 01:03:04;;;;;;;6.93;4.30;;;1.90;99.90;;;;;;5111804;28;20103;-72
2023/01/29 01:04:04;;;;;;;6.90;4.40;;;1.90;99.90;;;;;;5111984;28;20035;-71
2023/01/29 01:06:29;;;;;;;7.63;4.00;;;1.90;99.90;;;;;;5111100;28;20077;-72
2023/01/29 01:11:39;;;;;;;8.63;4.10;;;1.90;99.90;;;;;;5112473;28;20078;-72
2023/01/29 01:14:05;;;;;;;7.47;4.63;;;1.90;99.90;;;;;;5112427;28;20059;-72
2023/01/29 01:16:30;;;;;;;8.13;4.53;;;1.90;99.90;;;;;;5093284;28;20028;-72
2023/01/29 01:18:56;;;;;;;8.43;4.83;;;1.90;99.90;;;;;;5090562;28;20092;-72
2023/01/29 01:21:22;;;;;;;8.03;4.73;;;1.90;99.90;;;;;;5091223;28;20084;-71
2023/01/29 01:23:50;;;;;;;7.17;4.10;;;1.90;99.90;;;;;;5090596;28;20035;-72
2023/01/29 01:26:16;;;;;;;5.40;3.90;;;1.90;99.90;;;;;;5091007;28;20051;-74
2023/01/29 01:28:42;;;;;;;7.73;4.33;;;1.90;99.90;;;;;;5090498;28;20060;-72
2023/01/29 01:31:12;;;;;;;8.33;3.83;;;1.80;99.90;;;;;;5090531;28;20024;-72
2023/01/29 01:33:39;;;;;;;7.17;4.17;;;1.80;99.90;;;;;;5090041;28;20032;-72
2023/01/29 01:36:08;;;;;;;5.50;3.60;;;1.80;99.90;;;;;;5091803;28;20030;-72
2023/01/29 01:38:43;;;;;;;9.03;3.93;;;1.70;99.90;;;;;;5091135;28;20556;-72
2023/01/29 01:41:16;;;;;;;7.63;3.90;;;1.80;99.90;;;;;;5090572;28;20024;-72
2023/01/29 01:43:56;;;;;;;7.73;4.17;;;1.70;99.90;;;;;;5076849;28;20394;-72
2023/01/29 01:46:23;;;;;;;8.33;3.80;;;1.80;99.90;;;;;;5069383;28;20482;-72
2023/01/29 01:49:17;;;;;;;7.50;4.70;;;1.70;99.90;;;;;;5070213;28;20025;-72
2023/01/29 01:51:46;;;;;;;7.43;3.67;;;1.70;99.90;;;;;;5061727;28;20041;-71
2023/01/29 01:54:33;;;;;;;7.83;3.77;;;1.70;99.90;;;;;;5073741;28;20056;-72
2023/01/29 01:57:08;;;;;;;7.07;3.67;;;1.70;99.90;;;;;;5073832;28;20024;-72
2023/01/29 01:59:38;;;;;;;6.47;4.00;;;1.70;99.90;;;;;;5073095;28;20135;-72
2023/01/29 02:10:23;;;;;;;8.27;4.33;;;1.70;99.90;;;;;;5074139;28;20107;-72
2023/01/29 02:12:50;;;;;;;6.20;3.73;;;1.70;99.90;;;;;;5073614;28;20051;-72
2023/01/29 02:15:15;;;;;;;10.20;5.23;;;1.70;99.90;;;;;;5074144;28;20025;-72
2023/01/29 02:17:41;;;;;;;7.13;4.33;;;1.70;99.90;;;;;;5073102;28;20047;-72
2023/01/29 02:20:24;;;;;;;9.27;4.33;;;1.70;99.90;;;;;;5076828;28;20048;-71
2023/01/29 02:23:22;;;;;;;6.33;4.10;;;1.70;99.90;;;;;;5076869;28;20059;-72
2023/01/29 02:26:19;;;;;;;8.93;4.13;;;1.70;99.90;;;;;;5094953;28;20483;-72
2023/01/29 02:28:57;;;;;;;8.63;4.77;;;1.70;99.90;;;;;;5094914;28;20454;-72
2023/01/29 02:31:37;;;;;;;7.97;4.40;;;1.70;99.90;;;;;;5076019;28;20043;-72
2023/01/29 02:37:17;;;;;;;5.95;4.05;;;1.60;99.90;;;;;;5094438;28;20515;-74
2023/01/29 02:39:56;;;;;;;8.10;4.10;;;1.60;99.90;;;;;;5094317;28;20028;-72
2023/01/29 02:42:34;;;;;;;8.20;4.47;;;1.60;99.90;;;;;;5075775;28;20385;-72
2023/01/29 02:45:04;;;;;;;5.90;3.87;;;1.60;99.90;;;;;;5094558;28;20154;-73
2023/01/29 02:47:47;;;;;;;7.13;4.43;;;1.60;99.90;;;;;;5093785;28;20024;-72
2023/01/29 02:50:25;;;;;;;6.22;4.30;;;1.60;99.90;;;;;;5076301;28;20039;-71
2023/01/29 02:52:55;;;;;;;9.80;4.70;;;1.70;99.90;;;;;;5076512;28;20039;-70
2023/01/29 02:55:43;;;;;;;7.77;4.30;;;1.70;99.90;;;;;;5075571;28;20035;-72
2023/01/29 02:58:16;;;;;;;7.80;4.50;;;1.60;99.90;;;;;;5076054;28;20481;-71
2023/01/29 03:00:45;;;;;;;8.97;4.73;;;1.60;99.90;;;;;;5075117;28;20032;-71
2023/01/29 03:03:23;;;;;;;10.43;5.30;;;1.60;99.90;;;;;;5075349;28;20039;-72
2023/01/29 03:06:17;;;;;;;6.67;4.30;;;1.50;99.90;;;;;;5076027;28;20028;-71
2023/01/29 03:08:55;;;;;;;8.77;4.40;;;1.60;99.90;;;;;;5075288;28;20024;-71
2023/01/29 03:11:21;;;;;;;7.30;4.50;;;1.60;99.90;;;;;;5075242;28;20024;-73
2023/01/29 03:13:56;;;;;;;9.03;4.90;;;1.60;99.90;;;;;;5075755;28;20462;-71
2023/01/29 03:16:55;;;;;;;7.83;4.20;;;1.60;99.90;;;;;;5074811;28;20123;-72
2023/01/29 03:19:30;;;;;;;8.73;4.80;;;1.60;99.90;;;;;;5018688;28;20070;-74
2023/01/29 03:21:58;;;;;;;6.93;4.03;;;1.60;99.90;;;;;;5075569;28;20027;-72
2023/01/29 03:33:26;;;;;;;6.47;4.03;;;1.50;99.90;;;;;;5092944;28;20504;-72
2023/01/29 03:36:01;;;;;;;8.37;4.63;;;1.50;99.90;;;;;;5075342;28;20122;-72
2023/01/29 03:38:28;;;;;;;9.77;5.20;;;1.50;99.90;;;;;;5092678;28;20020;-72
2023/01/29 03:41:31;;;;;;;6.77;4.27;;;1.50;99.90;;;;;;5093392;28;20142;-72
2023/01/29 03:44:13;;;;;;;7.03;4.37;;;1.50;99.90;;;;;;5024734;28;20051;-71
2023/01/29 03:47:17;;;;;;;15.05;7.57;;;1.50;99.90;;;;;;5092647;28;20024;-71
2023/01/29 03:49:52;;;;;;;8.00;4.63;;;1.50;99.90;;;;;;5069231;28;20032;-72
2023/01/29 03:52:37;;;;;;;8.17;4.23;;;1.40;99.90;;;;;;5075078;28;20062;-71
2023/01/29 03:55:30;;;;;;;7.87;4.60;;;1.50;99.90;;;;;;5093148;28;20028;-71
2023/01/29 03:58:07;;;;;;;;;;;1.40;99.90;;;;;;5074164;28;20032;-71
2023/01/29 04:00:46;;;;;;;7.70;4.40;;;1.40;99.90;;;;;;5073938;28;19904;-71
2023/01/29 04:03:38;;;;;;;8.13;4.40;;;1.40;99.90;;;;;;5074729;28;20124;-71
2023/01/29 04:06:10;;;;;;;4.90;3.42;;;1.40;99.90;;;;;;5073614;28;20036;-71
2023/01/29 04:08:45;;;;;;;7.97;4.47;;;1.40;99.90;;;;;;5073878;28;20575;-71
2023/01/29 04:11:14;;;;;;;8.67;4.50;;;1.40;99.90;;;;;;5092888;28;20052;-71
2023/01/29 04:13:40;;;;;;;8.07;4.50;;;1.40;99.90;;;;;;5092065;28;20043;-71
2023/01/29 04:16:11;;;;;;;7.60;4.40;;;1.40;99.90;;;;;;5092078;28;20055;-71
2023/01/29 04:18:37;;;;;;;8.02;4.25;;;1.40;99.90;;;;;;5091889;28;20484;-71
2023/01/29 04:21:06;;;;;;;6.37;3.80;;;1.40;99.90;;;;;;5074555;28;20028;-71
2023/01/29 04:23:31;;;;;;;6.77;4.27;;;1.40;99.90;;;;;;5073605;28;20036;-71
2023/01/29 04:26:41;;;;;;;8.97;4.87;;;1.50;99.90;;;;;;5074497;28;20118;-70
2023/01/29 04:29:25;;;;;;;8.23;4.37;;;1.50;99.90;;;;;;5074558;28;20061;-71
2023/01/29 04:31:59;;;;;;;8.93;4.10;;;1.40;99.90;;;;;;5074172;28;20032;-71
2023/01/29 04:34:30;;;;;;;9.80;4.30;;;1.40;99.90;;;;;;5073919;28;20024;-73
2023/01/29 04:37:11;;;;;;;6.22;3.85;;;1.50;99.90;;;;;;5074459;28;20024;-71
2023/01/29 04:39:52;;;;;;;7.67;4.07;;;1.50;99.90;;;;;;5091719;28;20136;-71
2023/01/29 04:42:31;;;;;;;7.80;4.20;;;1.40;99.90;;;;;;5073973;28;20042;-71
2023/01/29 04:45:32;;;;;;;7.33;3.90;;;1.40;99.90;;;;;;5074706;28;20380;-71
2023/01/29 04:48:28;;;;;;;7.07;3.90;;;1.40;99.90;;;;;;5092308;28;20074;-71
2023/01/29 04:51:04;;;;;;;8.07;4.57;;;1.40;99.90;;;;;;5074110;28;20429;-71
2023/01/29 04:54:13;;;;;;;7.57;4.50;;;1.40;99.90;;;;;;5073399;28;20024;-72
2023/01/29 04:56:52;;;;;;;6.73;4.13;;;1.40;99.90;;;;;;5042558;28;20058;-72
2023/01/29 04:59:29;;;;;;;6.03;4.03;;;1.40;99.90;;;;;;5074010;28;20473;-72
2023/01/29 05:01:55;;;;;;;8.23;4.40;;;1.40;99.90;;;;;;5074028;28;20036;-71
2023/01/29 05:04:23;;;;;;;7.63;4.27;;;1.30;99.90;;;;;;5092179;28;20028;-72
2023/01/29 05:06:49;;;;;;;8.97;4.60;;;1.40;99.90;;;;;;5073403;28;20119;-71
2023/01/29 05:09:16;;;;;;;9.17;4.37;;;1.40;99.90;;;;;;5092201;28;20024;-71
2023/01/29 05:11:44;;;;;;;6.43;3.90;;;1.40;99.90;;;;;;5073325;28;20059;-72
2023/01/29 05:14:14;;;;;;;6.83;4.00;;;1.40;99.90;;;;;;5092207;28;20024;-71
2023/01/29 05:16:45;;;;;;;7.10;4.40;;;1.40;99.90;;;;;;5073382;28;20073;-72
2023/01/29 05:19:13;;;;;;;10.93;5.13;;;1.40;99.90;;;;;;5081046;28;20050;-72
2023/01/29 05:21:42;;;;;;;9.10;5.30;;;1.40;99.90;;;;;;5093460;28;20039;-71
2023/01/29 05:24:14;;;;;;;10.67;5.10;;;1.30;99.90;;;;;;5094168;28;20040;-72
2023/01/29 05:29:25;;;;;;;7.90;4.77;;;1.30;99.90;;;;;;5116565;28;20429;-72
2023/01/29 05:31:50;;;;;;;8.20;4.43;;;1.20;99.90;;;;;;5115719;28;20032;-72
2023/01/29 05:34:16;;;;;;;9.47;4.77;;;1.20;99.90;;;;;;5097841;28;20034;-71
2023/01/29 05:36:41;;;;;;;9.13;4.60;;;1.20;99.90;;;;;;5097302;28;20073;-71
2023/01/29 05:39:07;;;;;;;8.67;4.80;;;1.30;99.90;;;;;;5091561;28;20019;-73
2023/01/29 05:41:33;;;;;;;10.87;5.37;;;1.20;99.90;;;;;;5088812;28;20080;-72
2023/01/29 05:43:58;;;;;;;6.37;4.27;;;1.20;99.90;;;;;;5098774;28;20032;-71
2023/01/29 05:46:24;;;;;;;7.53;4.20;;;1.30;99.90;;;;;;5086084;28;20027;-72
2023/01/29 05:48:51;;;;;;;7.07;4.30;;;1.30;99.90;;;;;;5101058;28;20759;-71
2023/01/29 05:51:17;;;;;;;8.63;4.57;;;1.30;99.90;;;;;;5108286;28;20035;-72
2023/01/29 05:53:43;;;;;;;7.73;4.53;;;1.30;99.90;;;;;;5090300;28;20020;-72
2023/01/29 05:56:09;;;;;;;9.70;4.97;;;1.30;99.90;;;;;;5095764;28;20027;-72
2023/01/29 05:58:34;;;;;;;10.87;4.80;;;1.30;99.90;;;;;;5091091;28;20015;-72
2023/01/29 06:01:16;;;;;;;7.93;4.47;;;1.20;99.90;;;;;;5088640;28;20484;-72
2023/01/29 06:03:42;;;;;;;8.18;4.40;;;1.20;99.90;;;;;;5089711;28;20043;-72
2023/01/29 06:06:08;;;;;;;10.27;4.93;;;1.20;99.90;;;;;;5080208;28;20028;-72
2023/01/29 06:08:33;;;;;;;6.90;4.13;;;1.20;99.90;;;;;;5091992;28;20381;-72
2023/01/29 06:10:59;;;;;;;8.77;4.73;;;1.20;99.90;;;;;;5114064;28;20020;-72
2023/01/29 06:13:25;;;;;;;9.10;4.40;;;1.20;99.90;;;;;;5084947;28;20032;-73
2023/01/29 06:15:50;;;;;;;6.80;4.20;;;1.20;99.90;;;;;;5090778;28;20027;-71
2023/01/29 06:18:16;;;;;;;7.87;4.80;;;1.20;99.90;;;;;;5080008;28;20031;-72
2023/01/29 06:20:42;;;;;;;7.17;4.40;;;1.20;99.90;;;;;;5086559;28;20409;-72
2023/01/29 06:23:07;;;;;;;7.77;5.07;;;1.20;99.90;;;;;;5065354;28;20035;-72
2023/01/29 06:25:33;;;;;;;9.47;5.03;;;1.20;99.90;;;;;;5079708;28;20037;-72
2023/01/29 06:27:58;;;;;;;9.17;4.53;;;1.20;99.90;;;;;;5089119;28;20384;-72
2023/01/29 06:30:24;;;;;;;9.83;5.47;;;1.20;99.90;;;;;;5076073;28;20046;-72
2023/01/29 06:32:50;;;;;;;9.57;4.83;;;1.20;99.90;;;;;;5085729;28;20674;-72
2023/01/29 06:35:15;;;;;;;9.97;5.47;;;1.20;99.90;;;;;;5073364;28;20032;-72
2023/01/29 06:37:41;;;;;;;9.93;4.70;;;1.20;99.90;;;;;;5085087;28;20030;-72
2023/01/29 06:40:07;;;;;;;7.13;4.67;;;1.30;99.90;;;;;;5079063;28;20465;-72
2023/01/29 06:42:36;;;;;;;10.40;5.93;;;1.30;99.90;;;;;;5093374;28;20089;-72
2023/01/29 06:45:01;;;;;;;9.77;5.33;;;1.30;99.90;;;;;;5092743;28;20024;-71
2023/01/29 06:47:27;;;;;;;8.13;4.73;;;1.30;99.90;;;;;;5082307;28;20355;-71
2023/01/29 06:49:53;;;;;;;8.10;4.73;;;1.30;99.90;;;;;;5087331;28;20034;-71
2023/01/29 06:52:18;;;;;;;8.70;4.90;;;1.30;99.90;;;;;;5090389;28;20081;-71
2023/01/29 06:54:44;;;;;;;8.10;5.20;;;1.20;99.90;;;;;;5077263;28;20031;-71
2023/01/29 06:57:09;;;;;;;10.47;5.30;;;1.20;99.90;;;;;;5083240;28;20021;-71
2023/01/29 06:59:35;;;;;;;9.90;5.50;;;1.20;99.90;;;;;;5084352;28;20034;-71
2023/01/29 07:02:02;;;;;;;9.17;5.47;;;1.20;99.90;;;;;;5075794;28;20036;-71
2023/01/29 07:04:28;;;;;;;10.47;5.93;;;1.20;99.90;;;;;;5072138;28;20052;-71
2023/01/29 07:06:53;;;;;;;9.97;5.27;;;1.20;99.90;;;;;;5079593;28;20044;-70
2023/01/29 07:09:19;;;;;;;11.33;5.53;;;1.20;99.90;;;;;;5088266;28;20024;-72
2023/01/29 07:11:44;;;;;;;9.13;4.93;;;1.30;99.90;;;;;;5091511;28;20118;-71
2023/01/29 07:14:10;;;;;;;11.50;4.90;;;1.20;99.90;;;;;;5090943;28;20439;-71
2023/01/29 07:16:36;;;;;;;8.53;4.97;;;1.20;99.90;;;;;;5075898;28;20175;-71
2023/01/29 07:19:01;;;;;;;13.93;5.20;;;1.20;99.90;;;;;;5099023;28;20040;-70
2023/01/29 07:21:28;;;;;;;8.73;4.67;;;1.20;99.90;;;;;;5083517;28;20020;-71
2023/01/29 07:23:53;;;;;;;10.53;5.63;;;1.20;99.90;;;;;;5090029;28;20031;-71
2023/01/29 07:26:19;;;;;;;8.20;4.80;;;1.20;99.90;;;;;;5093070;28;20506;-71
2023/01/29 07:28:44;;;;;;;10.33;5.00;;;1.20;99.90;;;;;;5098550;28;20069;-71
2023/01/29 07:31:12;;;;;;;8.97;5.37;;;1.20;99.90;;;;;;5085369;28;20028;-70
2023/01/29 07:33:38;;;;;;;11.50;5.80;;;1.30;99.90;;;;;;5087739;28;20397;-71
2023/01/29 07:36:07;;;;;;;8.53;4.90;;;1.30;99.90;;;;;;5112487;28;20019;-71
2023/01/29 07:38:33;;;;;;;8.63;4.57;;;1.30;99.90;;;;;;5078740;28;20480;-73
2023/01/29 07:40:58;;;;;;;9.13;5.13;;;1.30;99.90;;;;;;5094706;28;20019;-71
2023/01/29 07:43:24;;;;;;;7.20;4.43;;;1.30;99.90;;;;;;5083815;28;20465;-71
2023/01/29 07:45:50;;;;;;;8.60;5.00;;;1.30;99.90;;;;;;5089132;28;20027;-71
2023/01/29 07:48:16;;;;;;;11.60;5.50;;;1.40;99.90;;;;;;5078352;28;20024;-71
2023/01/29 07:50:42;;;;;;;8.57;5.00;;;1.40;99.90;;;;;;5106260;28;20130;-71
2023/01/29 07:53:15;;;;;;;9.33;5.63;;;1.40;99.90;;;;;;5083878;28;20042;-71
2023/01/29 07:55:44;;;;;;;9.47;5.00;;;1.40;99.90;;;;;;5100216;28;20121;-72
2023/01/29 07:58:10;;;;;;;8.03;4.80;;;1.40;99.90;;;;;;5092464;28;20107;-71
2023/01/29 08:00:35;;;;;;;10.30;5.20;;;1.40;99.90;;;;;;5107912;28;20031;-71
2023/01/29 08:03:03;;;;;;;7.50;4.63;;;1.40;99.90;;;;;;5100869;28;20028;-72
2023/01/29 08:05:29;;;;;;;9.17;5.20;;;1.40;99.90;;;;;;5092106;28;20053;-71
2023/01/29 08:07:54;;;;;;;10.93;5.13;;;1.30;99.90;;;;;;5112116;28;20039;-71
2023/01/29 08:10:20;;;;;;;11.13;5.20;;;1.30;99.90;;;;;;5088840;28;20024;-72
2023/01/29 08:12:46;;;;;;;7.13;4.77;;;1.30;99.90;;;;;;5106229;28;20106;-71
2023/01/29 08:15:12;;;;;;;10.13;5.27;;;1.30;99.90;;;;;;5102401;28;20078;-72
2023/01/29 08:17:38;;;;;;;6.53;4.23;;;1.20;99.90;;;;;;5080375;28;20529;-71
2023/01/29 08:20:06;;;;;;;10.43;4.90;;;1.20;99.90;;;;;;5109081;28;20543;-71
2023/01/29 08:22:31;;;;;;;10.57;4.60;;;1.20;99.90;;;;;;5096037;28;20023;-73
2023/01/29 08:24:57;;;;;;;9.07;4.70;;;1.20;99.90;;;;;;5086116;28;20024;-71
2023/01/29 08:27:22;;;;;;;9.30;5.13;;;1.20;99.90;;;;;;5085053;28;20047;-71
2023/01/29 08:29:48;;;;;;;7.70;4.70;;;1.20;99.90;;;;;;5078759;28;20024;-71
2023/01/29 08:32:13;;;;;;;9.20;5.23;;;1.20;99.90;;;;;;5109947;28;20069;-72
2023/01/29 08:34:39;;;;;;;9.17;4.90;;;1.20;99.90;;;;;;5088394;28;20024;-72
2023/01/29 08:37:05;;;;;;;8.47;4.87;;;1.20;99.90;;;;;;5082003;28;20023;-71
2023/01/29 08:39:30;;;;;;;11.13;5.23;;;1.20;99.90;;;;;;5092918;28;20103;-71
2023/01/29 08:41:56;;;;;;;8.27;4.57;;;1.20;99.90;;;;;;5107887;28;20031;-71
2023/01/29 08:44:21;;;;;;;7.80;4.87;;;1.30;99.90;;;;;;5091651;28;20031;-70
2023/01/29 08:46:47;;;;;;;8.57;4.97;;;1.30;99.90;;;;;;5082283;28;20349;-71
2023/01/29 08:49:12;;;;;;;8.07;4.70;;;1.30;99.90;;;;;;5088262;28;20030;-71
2023/01/29 08:51:38;;;;;;;7.93;4.63;;;1.30;99.90;;;;;;5093072;28;20028;-71
2023/01/29 08:54:03;;;;;;;10.20;5.20;;;1.30;99.90;;;;;;5094069;28;20020;-72
2023/01/29 08:56:29;;;;;;;7.83;4.87;;;1.30;99.90;;;;;;5090280;28;20024;-72
2023/01/29 08:58:55;;;;;;;10.07;5.03;;;1.30;99.90;;;;;;5098456;28;20011;-72
2023/01/29 09:01:20;;;;;;;7.73;4.53;;;1.30;99.90;;;;;;5101740;28;20107;-72
2023/01/29 09:03:46;;;;;;;9.07;5.10;;;1.30;99.90;;;;;;5091284;28;20392;-72
2023/01/29 09:06:13;;;;;;;10.03;4.73;;;1.30;99.90;;;;;;5099459;28;20077;-72
2023/01/29 09:08:38;;;;;;;7.77;4.63;;;1.20;99.90;;;;;;5092024;28;20020;-74
2023/01/29 09:11:04;;;;;;;8.10;4.60;;;1.20;99.90;;;;;;5116124;28;20020;-73
2023/01/29 09:13:30;;;;;;;7.60;4.53;;;1.20;99.90;;;;;;5085875;28;20381;-72
2023/01/29 09:16:03;;;;;;;8.70;4.40;;;1.20;99.90;;;;;;5111503;28;20058;-74
2023/01/29 09:18:29;;;;;;;8.53;4.33;;;1.20;99.90;;;;;;5098008;28;20080;-73
2023/01/29 09:20:55;;;;;;;10.07;4.97;;;1.20;99.90;;;;;;5092406;28;21298;-74
2023/01/29 09:23:21;;;;;;;8.87;5.33;;;1.30;99.90;;;;;;5102504;28;20169;-73
2023/01/29 09:25:49;;;;;;;10.67;4.67;;;1.50;99.90;;;;;;5086211;28;20470;-73
2023/01/29 09:28:16;;;;;;;7.67;4.37;;;1.60;99.90;;;;;;5083839;28;20031;-73
2023/01/29 09:30:42;;;;;;;7.63;4.40;;;1.60;99.90;;;;;;5081101;28;20027;-73
2023/01/29 09:33:08;;;;;;;7.57;4.80;;;1.70;99.90;;;;;;5082437;28;20031;-71
2023/01/29 09:35:33;;;;;;;7.77;4.37;;;1.70;99.90;;;;;;5084065;28;20492;-73
2023/01/29 09:37:59;;;;;;;7.93;4.10;;;1.70;99.90;;;;;;5109978;28;20020;-73
2023/01/29 09:40:53;;;;;;;8.57;4.30;;;1.70;99.90;;;;;;5090391;28;20030;-73
2023/01/29 09:43:42;;;;;;;8.13;4.13;;;1.70;99.90;;;;;;5094813;28;20063;-73
2023/01/29 09:46:34;;;;;;;5.77;4.00;;;1.70;99.90;;;;;;5093879;28;20035;-74
2023/01/29 09:49:06;;;;;;;6.72;4.15;;;1.70;99.90;;;;;;5115304;28;20356;-73
2023/01/29 09:51:40;;;;;;;6.10;3.57;;;1.70;99.90;;;;;;5091745;28;20031;-73
2023/01/29 09:54:06;;;;;;;7.13;4.20;;;1.80;99.90;;;;;;5098401;28;20028;-73
2023/01/29 09:56:32;;;;;;;7.87;4.20;;;1.80;99.90;;;;;;5111791;28;20023;-73
2023/01/29 09:58:58;;;;;;;8.43;4.20;;;1.90;99.90;;;;;;5106263;28;20519;-74
2023/01/29 10:02:02;;;;;;;6.23;3.87;;;1.90;99.90;;;;;;5111444;28;20461;-75
2023/01/29 10:04:33;;;;;;;6.80;3.77;;;2.00;99.90;;;;;;5082051;28;20027;-72
2023/01/29 10:07:08;;;;;;;6.68;3.90;;;2.00;99.90;;;;;;5102076;28;20065;-73
2023/01/29 10:09:43;;;;;;;5.43;3.40;;;2.00;99.90;;;;;;5084584;28;20035;-73
2023/01/29 10:12:41;;;;;;;6.03;3.77;;;2.00;99.90;;;;;;5090961;28;20115;-73
2023/01/29 10:15:21;;;;;;;8.00;3.73;;;2.10;99.90;;;;;;5065572;28;20763;-73
2023/01/29 10:17:55;;;;;;;5.60;3.50;;;2.20;99.90;;;;;;5081051;28;20039;-74
2023/01/29 10:20:30;;;;;;;6.47;3.80;;;2.30;99.90;;;;;;5089934;28;20484;-73
2023/01/29 10:23:13;;;;;;;5.50;3.50;;;2.30;99.90;;;;;;5090047;28;20022;-74
2023/01/29 10:25:40;;;;;;;6.00;3.73;;;2.40;99.90;;;;;;5092981;28;20418;-74
2023/01/29 10:28:17;;;;;;;7.90;4.20;;;2.40;99.90;;;;;;5094944;28;20103;-75
2023/01/29 10:30:49;;;;;;;5.43;3.60;;;2.40;99.90;;;;;;5099938;28;20430;-73
2023/01/29 10:33:25;;;;;;;8.02;4.28;;;2.50;99.90;;;;;;5096340;28;20036;-73
2023/01/29 10:35:55;;;;;;;8.33;4.83;;;2.50;99.90;;;;;;5112339;28;20035;-76
2023/01/29 10:38:40;;;;;;;8.60;4.87;;;2.60;99.90;;;;;;5077220;28;20028;-73
2023/01/29 10:41:09;;;;;;;5.77;4.30;;;2.70;99.90;;;;;;5099342;28;20108;-73
2023/01/29 10:44:12;;;;;;;10.47;5.33;;;2.80;99.90;;;;;;5086811;28;20035;-76
2023/01/29 10:47:16;;;;;;;8.40;4.20;;;2.80;99.90;;;;;;5081039;28;20369;-77
2023/01/29 10:50:16;;;;;;;7.03;4.03;;;2.80;99.90;;;;;;5092818;28;20071;-72
2023/01/29 10:53:15;;;;;;;9.53;4.77;;;2.80;99.90;;;;;;5082922;28;20526;-74
2023/01/29 10:55:59;;;;;;;8.20;4.60;;;2.80;99.90;;;;;;5077859;28;20016;-74
2023/01/29 10:58:40;;;;;;;9.53;5.40;;;2.80;99.90;;;;;;5114607;28;20028;-73
2023/01/29 11:01:08;;;;;;;7.00;3.93;;;2.70;99.90;;;;;;5089704;28;20034;-73
2023/01/29 11:03:34;;;;;;;8.03;4.57;;;2.60;99.90;;;;;;5088615;28;20044;-74
2023/01/29 11:06:10;;;;;;;8.17;4.67;;;2.70;99.90;;;;;;5080674;28;20024;-74
2023/01/29 11:09:08;;;;;;;7.40;4.40;;;2.80;99.90;;;;;;5103516;28;20020;-76
2023/01/29 11:11:53;;;;;;;8.03;4.57;;;2.80;99.90;;;;;;5059353;28;20508;-73
2023/01/29 11:14:37;;;;;;;7.83;4.40;;;2.70;99.90;;;;;;5088732;28;20038;-73
2023/01/29 11:17:03;;;;;;;8.77;4.47;;;2.80;99.90;;;;;;5089982;28;20114;-74
2023/01/29 11:19:38;;;;;;;7.10;4.47;;;2.90;99.90;;;;;;5090067;28;20124;-74
2023/01/29 11:22:04;;;;;;;7.10;4.73;;;3.00;99.90;;;;;;5078726;28;20116;-75
2023/01/29 11:24:29;;;;;;;7.63;4.67;;;3.10;99.90;;;;;;5107177;28;20477;-74
2023/01/29 11:26:58;;;;;;;6.97;4.27;;;3.00;99.90;;;;;;5113482;28;20027;-73
2023/01/29 11:29:32;;;;;;;8.43;4.43;;;3.00;99.90;;;;;;5086884;28;20023;-74
2023/01/29 11:32:01;;;;;;;8.93;4.67;;;3.00;99.90;;;;;;5110075;28;20032;-72
2023/01/29 11:34:28;;;;;;;7.40;4.33;;;3.00;99.90;;;;;;5090961;28;20097;-73
2023/01/29 11:36:58;;;;;;;7.77;4.30;;;2.90;99.90;;;;;;5109789;28;20095;-73
2023/01/29 11:39:26;;;;;;;7.13;4.60;;;3.00;99.90;;;;;;5083849;28;20023;-72
2023/01/29 11:42:03;;;;;;;7.77;4.47;;;3.00;99.90;;;;;;5089564;28;20038;-73
2023/01/29 11:44:32;;;;;;;7.43;4.50;;;3.00;99.90;;;;;;5083664;28;20484;-74
2023/01/29 11:47:17;;;;;;;6.90;4.40;;;3.10;99.90;;;;;;5087963;28;20065;-73
2023/01/29 11:49:49;;;;;;;7.87;4.23;;;3.10;99.90;;;;;;5082616;28;20112;-73
2023/01/29 11:52:17;;;;;;;;;;;3.10;99.90;;;;;;5089097;28;20020;-73
2023/01/29 11:54:56;;;;;;;15.27;8.33;;;3.10;99.90;;;;;;5106793;28;19914;-73
2023/01/29 11:57:37;;;;;;;8.67;4.53;;;3.20;99.90;;;;;;5098080;28;20024;-73
2023/01/29 12:00:21;;;;;;;6.90;4.20;;;3.10;99.90;;;;;;5079558;28;20027;-74
2023/01/29 12:03:05;;;;;;;7.63;4.30;;;3.10;99.90;;;;;;5107520;28;20114;-74
2023/01/29 12:05:30;;;;;;;7.10;4.17;;;3.20;99.90;;;;;;5101914;28;20023;-73
2023/01/29 12:07:59;;;;;;;6.23;3.63;;;3.30;99.90;;;;;;5092043;28;20103;-73
2023/01/29 12:10:39;;;;;;;5.87;3.83;;;3.40;99.90;;;;;;5107405;28;20114;-74
2023/01/29 12:13:14;;;;;;;7.07;3.87;;;3.40;99.90;;;;;;5088923;28;20049;-73
2023/01/29 12:15:41;;;;;;;5.67;3.40;;;3.50;99.90;;;;;;5104062;28;20050;-73
2023/01/29 12:18:38;;;;;;;5.93;3.30;;;3.60;99.90;;;;;;5104807;28;20027;-73
2023/01/29 12:21:14;;;;;;;4.33;3.03;;;3.70;99.90;;;;;;5062842;28;20054;-73
2023/01/29 12:23:56;;;;;;;4.47;2.80;;;3.90;99.90;;;;;;5097399;28;20522;-74
2023/01/29 12:26:50;;;;;;;5.55;2.60;;;4.00;99.90;;;;;;5105470;28;20028;-73
2023/01/29 12:29:39;;;;;;;3.80;2.80;;;4.20;99.90;;;;;;5077483;28;20067;-73
2023/01/29 12:32:11;;;;;;;4.07;2.60;;;4.30;99.90;;;;;;5086869;28;20031;-74
2023/01/29 12:34:54;;;;;;;4.68;2.80;;;4.50;99.90;;;;;;5107876;28;20081;-75
2023/01/29 12:37:34;;;;;;;5.37;3.00;;;4.80;99.90;;;;;;5089634;28;20065;-73
2023/01/29 12:40:00;;;;;;;5.70;2.83;;;5.00;99.90;;;;;;5100606;28;20065;-73
2023/01/29 12:42:26;;;;;;;4.33;2.90;;;5.10;99.40;;;;;;5087577;28;20031;-74
2023/01/29 12:44:58;;;;;;;5.80;3.00;;;5.20;99.00;;;;;;5087425;28;20428;-73
2023/01/29 12:47:44;;;;;;;3.72;2.67;;;5.30;98.60;;;;;;5088076;28;20447;-73
2023/01/29 12:50:19;;;;;;;45.40;19.63;;;5.50;97.10;;;;;;5108624;28;20461;-72
2023/01/29 12:52:56;;;;;;;8.23;5.03;;;5.80;96.90;;;;;;5082113;28;20093;-72
2023/01/29 12:55:26;;;;;;;5.23;3.53;;;6.10;97.40;;;;;;5093865;28;20024;-72
2023/01/29 12:58:04;;;;;;;5.83;2.97;;;6.30;96.20;;;;;;5096159;28;20028;-72
2023/01/29 13:00:36;;;;;;;7.13;3.30;;;6.50;95.50;;;;;;5093848;28;20039;-72
2023/01/29 13:03:44;;;;;;;4.47;2.77;;;6.40;95.20;;;;;;5103471;28;20089;-72
2023/01/29 13:06:14;;;;;;;4.40;3.17;;;6.50;94.90;;;;;;5091519;28;20122;-72
2023/01/29 13:08:52;;;;;;;4.50;2.90;;;6.80;94.30;;;;;;5111942;28;20027;-74
2023/01/29 13:11:46;;;;;;;4.97;2.80;;;6.70;92.90;;;;;;5094326;28;20457;-72
2023/01/29 13:14:17;;;;;;;4.27;2.93;;;7.20;92.00;;;;;;5088784;28;20028;-72
2023/01/29 13:16:48;;;;;;;4.23;2.90;;;7.60;90.90;;;;;;5087593;28;20028;-73
2023/01/29 13:19:31;;;;;;;5.33;2.53;;;7.40;90.10;;;;;;5073626;28;20143;-72
2023/01/29 13:22:00;;;;;;;4.70;2.93;;;7.00;90.90;;;;;;5088599;28;20031;-72
2023/01/29 13:24:34;;;;;;;4.93;3.00;;;6.60;91.70;;;;;;5077080;28;20052;-72
2023/01/29 13:27:00;;;;;;;4.30;2.80;;;6.50;92.70;;;;;;5103355;28;20012;-72
2023/01/29 13:29:28;;;;;;;4.67;2.80;;;6.70;92.60;;;;;;5084909;28;20032;-72
2023/01/29 13:31:59;;;;;;;5.37;3.57;;;6.70;92.40;;;;;;5095115;28;20389;-73
2023/01/29 13:34:25;;;;;;;4.37;2.80;;;6.60;92.40;;;;;;5110592;28;20461;-72
2023/01/29 13:36:55;;;;;;;4.43;2.80;;;6.30;92.90;;;;;;5104425;28;20017;-73
2023/01/29 13:39:31;;;;;;;4.90;3.40;;;6.00;93.20;;;;;;5102231;28;20020;-72
2023/01/29 13:41:58;;;;;;;6.00;3.50;;;6.10;92.70;;;;;;5092483;28;20024;-72
2023/01/29 13:44:34;;;;;;;5.40;3.30;;;6.20;93.10;;;;;;5077062;28;20024;-73
2023/01/29 13:47:04;;;;;;;5.53;3.30;;;6.20;92.50;;;;;;5084985;28;20012;-72
2023/01/29 13:49:34;;;;;;;4.10;3.13;;;6.20;93.20;;;;;;5089485;28;20028;-72
2023/01/29 13:52:22;;;;;;;6.20;3.40;;;5.90;93.60;;;;;;5096630;28;20160;-72
2023/01/29 13:54:56;;;;;;;4.57;3.03;;;5.50;93.70;;;;;;5082716;28;20045;-72